createdAt,value
2022-11-04T00:00:37.572Z,66.73
2022-11-04T00:01:42.997Z,65.98
2022-11-04T00:02:46.084Z,67.85
2022-11-04T00:03:49.738Z,68.81
2022-11-04T00:04:52.820Z,66.48
2022-11-04T00:05:55.947Z,66.43
2022-11-04T00:06:59.022Z,67.64
2022-11-04T00:08:20.182Z,65.63
2022-11-04T00:09:25.923Z,66.65
2022-11-04T00:10:47.659Z,67.85
2022-11-04T00:12:09.697Z,64.98
2022-11-04T00:13:12.808Z,64.62
2022-11-04T00:14:15.965Z,64.62
2022-11-04T00:15:37.426Z,66.44
2022-11-04T00:16:59.238Z,65.74
2022-11-04T00:18:02.375Z,65.02
2022-11-04T00:19:05.363Z,65.54
2022-11-04T00:21:52.350Z,65.12
2022-11-04T00:23:13.767Z,63.08
2022-11-04T00:24:35.179Z,63.43
2022-11-04T00:25:56.791Z,64.86
2022-11-04T00:27:18.124Z,63.04
2022-11-04T00:28:39.809Z,65.25
2022-11-04T00:29:42.779Z,61.94
2022-11-04T00:30:45.649Z,61.89
2022-11-04T00:32:06.871Z,61.69
2022-11-04T00:33:25.271Z,63.46
2022-11-04T00:34:28.301Z,61.53
2022-11-04T00:35:31.244Z,62.88
2022-11-04T00:36:34.342Z,63.13
2022-11-04T00:37:38.740Z,64.11
2022-11-04T00:40:21.869Z,65.35
2022-11-04T00:41:29.246Z,63.58
2022-11-04T00:42:32.232Z,63.91
2022-11-04T00:43:35.213Z,54.86
2022-11-04T00:44:38.263Z,55.43
2022-11-04T00:45:42.126Z,51.86
2022-11-04T00:46:45.308Z,53.14
2022-11-04T00:47:48.177Z,50.80
2022-11-04T00:48:51.126Z,54.65
2022-11-04T00:49:54.279Z,48.20
2022-11-04T00:50:57.344Z,50.57
2022-11-04T00:52:00.374Z,49.45
2022-11-04T00:53:04.113Z,51.19
2022-11-04T00:54:07.198Z,49.25
2022-11-04T00:55:10.834Z,48.99
2022-11-04T00:56:13.838Z,46.96
2022-11-04T00:57:16.982Z,45.52
2022-11-04T00:58:19.947Z,44.37
2022-11-04T00:59:22.926Z,43.57
2022-11-04T01:00:26.209Z,45.61
2022-11-04T01:01:29.363Z,45.06
2022-11-04T01:02:32.549Z,43.77
2022-11-04T01:03:35.834Z,42.73
2022-11-04T01:04:38.898Z,39.53
2022-11-04T01:05:41.882Z,39.76
2022-11-04T01:06:44.971Z,38.26
2022-11-04T01:07:47.991Z,37.72
2022-11-04T01:09:00.075Z,37.14
2022-11-04T01:10:03.274Z,36.95
2022-11-04T01:11:08.306Z,38.27
2022-11-04T01:12:11.316Z,37.02
2022-11-04T01:13:14.287Z,38.21
2022-11-04T01:14:17.282Z,39.08
2022-11-04T01:15:20.551Z,36.59
2022-11-04T01:16:24.700Z,34.99
2022-11-04T01:17:28.250Z,36.50
2022-11-04T01:18:31.938Z,37.11
2022-11-04T01:19:34.951Z,37.33
2022-11-04T01:20:37.934Z,37.44
2022-11-04T01:21:40.893Z,37.43
2022-11-04T01:22:44.023Z,36.86
2022-11-04T01:23:46.965Z,35.98
2022-11-04T01:24:50.059Z,36.03
2022-11-04T01:25:53.063Z,36.39
2022-11-04T01:26:56.133Z,35.68
2022-11-04T01:27:59.108Z,34.52
2022-11-04T01:29:02.575Z,34.80
2022-11-04T01:30:06.478Z,35.17
2022-11-04T01:31:12.164Z,35.04
2022-11-04T01:32:15.377Z,35.41
2022-11-04T01:33:18.357Z,36.02
2022-11-04T01:34:21.358Z,34.16
2022-11-04T01:35:24.984Z,35.23
2022-11-04T01:36:28.145Z,36.28
2022-11-04T01:37:31.210Z,36.32
2022-11-04T01:38:34.583Z,33.74
2022-11-04T01:39:37.560Z,34.98
2022-11-04T01:40:41.080Z,34.36
2022-11-04T01:41:44.391Z,34.31
2022-11-04T01:42:47.678Z,32.71
2022-11-04T01:43:56.804Z,33.63
2022-11-04T01:45:00.821Z,32.61
2022-11-04T01:46:04.189Z,32.57
2022-11-04T01:47:16.232Z,31.35
2022-11-04T01:48:28.618Z,30.87
2022-11-04T01:49:37.909Z,32.96
2022-11-04T01:50:40.211Z,32.55
2022-11-04T01:51:45.308Z,32.33
2022-11-04T01:52:54.767Z,32.24
2022-11-04T01:53:58.290Z,32.90
2022-11-04T01:55:04.877Z,33.32
2022-11-04T01:56:12.242Z,32.91
2022-11-04T01:57:21.671Z,31.94
2022-11-04T01:58:28.217Z,33.63
2022-11-04T01:59:34.771Z,32.23
2022-11-04T02:00:38.945Z,34.08
2022-11-04T02:01:43.068Z,32.30
2022-11-04T02:02:58.992Z,31.50
2022-11-04T02:04:20.451Z,31.16
2022-11-04T02:05:23.514Z,30.71
2022-11-04T02:06:26.511Z,32.26
2022-11-04T02:07:30.696Z,32.01
2022-11-04T02:08:35.129Z,32.48
2022-11-04T02:09:39.694Z,30.75
2022-11-04T02:10:46.290Z,30.86
2022-11-04T02:12:07.424Z,31.36
2022-11-04T02:13:11.071Z,31.54
2022-11-04T02:14:14.448Z,29.53
2022-11-04T02:15:26.974Z,31.62
2022-11-04T02:16:39.480Z,32.04
2022-11-04T02:18:00.390Z,31.25
2022-11-04T02:19:26.420Z,30.48
2022-11-04T02:20:38.961Z,32.96
2022-11-04T02:22:09.850Z,32.88
2022-11-04T02:24:36.515Z,30.53
2022-11-04T02:26:05.825Z,33.79
2022-11-04T02:27:30.717Z,32.13
2022-11-04T02:28:46.046Z,32.86
2022-11-04T02:29:52.739Z,32.88
2022-11-04T02:31:08.460Z,33.41
2022-11-04T02:32:40.506Z,32.58
2022-11-04T02:33:56.233Z,33.33
2022-11-04T02:35:09.082Z,39.66
2022-11-04T02:36:21.899Z,38.02
2022-11-04T02:37:46.615Z,35.73
2022-11-04T02:38:59.298Z,34.67
2022-11-04T02:40:09.145Z,33.00
2022-11-04T02:41:18.676Z,33.56
2022-11-04T02:42:40.137Z,32.67
2022-11-04T02:44:06.535Z,32.37
2022-11-04T02:45:31.082Z,36.41
2022-11-04T02:46:37.703Z,37.49
2022-11-04T02:47:44.252Z,40.79
2022-11-04T02:48:53.489Z,40.65
2022-11-04T02:50:02.867Z,41.92
2022-11-04T02:51:18.144Z,42.81
2022-11-04T02:53:45.252Z,43.21
2022-11-04T02:54:51.790Z,42.38
2022-11-04T02:55:57.872Z,43.81
2022-11-04T02:57:03.481Z,42.36
2022-11-04T02:58:12.868Z,43.12
2022-11-04T02:59:31.519Z,42.09
2022-11-04T03:00:38.100Z,41.57
2022-11-04T03:01:45.956Z,41.34
2022-11-04T03:03:01.940Z,40.41
2022-11-04T03:04:11.799Z,39.73
2022-11-04T03:05:18.344Z,39.18
2022-11-04T03:06:24.366Z,39.63
2022-11-04T03:07:31.035Z,39.51
2022-11-04T03:08:37.337Z,38.15
2022-11-04T03:09:43.204Z,40.29
2022-11-04T03:10:49.843Z,40.83
2022-11-04T03:12:00.844Z,38.39
2022-11-04T03:13:36.052Z,38.44
2022-11-04T03:14:42.733Z,37.53
2022-11-04T03:15:52.169Z,37.88
2022-11-04T03:17:01.535Z,37.70
2022-11-04T03:18:17.168Z,36.99
2022-11-04T03:19:46.153Z,38.58
2022-11-04T03:20:51.079Z,38.27
2022-11-04T03:22:03.602Z,41.06
2022-11-04T03:23:08.558Z,41.33
2022-11-04T03:24:11.575Z,40.24
2022-11-04T03:25:15.155Z,41.86
2022-11-04T03:26:31.046Z,40.37
2022-11-04T03:27:49.840Z,40.48
2022-11-04T03:29:02.424Z,41.36
2022-11-04T03:30:21.063Z,41.20
2022-11-04T03:31:27.811Z,41.38
2022-11-04T03:32:52.260Z,42.07
2022-11-04T03:33:57.232Z,42.34
2022-11-04T03:35:00.624Z,45.00
2022-11-04T03:36:04.099Z,48.75
2022-11-04T03:37:07.543Z,52.11
2022-11-04T03:38:10.992Z,53.71
2022-11-04T03:39:14.162Z,54.26
2022-11-04T03:40:20.139Z,55.16
2022-11-04T03:41:35.480Z,57.61
2022-11-04T03:42:42.097Z,57.98
2022-11-04T03:43:45.711Z,56.79
2022-11-04T03:44:57.127Z,54.24
2022-11-04T03:46:00.337Z,56.02
2022-11-04T03:47:03.407Z,53.50
2022-11-04T03:48:06.831Z,54.65
2022-11-04T03:49:12.246Z,52.74
2022-11-04T03:50:20.760Z,53.49
2022-11-04T03:51:23.756Z,54.84
2022-11-04T03:52:27.111Z,54.59
2022-11-04T03:53:33.319Z,50.17
2022-11-04T03:54:36.331Z,51.36
2022-11-04T03:56:11.741Z,50.56
2022-11-04T03:57:33.293Z,50.46
2022-11-04T03:58:43.975Z,52.12
2022-11-04T04:00:08.405Z,50.79
2022-11-04T04:01:30.210Z,51.19
2022-11-04T04:02:42.763Z,47.36
2022-11-04T04:03:55.374Z,47.88
2022-11-04T04:05:04.746Z,47.73
2022-11-04T04:06:17.525Z,46.30
2022-11-04T04:07:24.063Z,51.87
2022-11-04T04:08:42.292Z,53.38
2022-11-04T04:09:48.879Z,49.15
2022-11-04T04:11:07.379Z,48.05
2022-11-04T04:12:19.639Z,50.96
2022-11-04T04:13:42.920Z,49.11
2022-11-04T04:14:53.343Z,49.04
2022-11-04T04:16:02.533Z,47.81
2022-11-04T04:17:20.919Z,46.79
2022-11-04T04:18:27.647Z,48.81
2022-11-04T04:19:32.533Z,46.95
2022-11-04T04:20:38.109Z,47.79
2022-11-04T04:21:50.675Z,48.21
2022-11-04T04:22:57.267Z,44.96
2022-11-04T04:24:22.597Z,45.07
2022-11-04T04:25:46.564Z,43.77
2022-11-04T04:27:10.499Z,45.39
2022-11-04T04:28:16.958Z,43.95
2022-11-04T04:29:21.545Z,45.27
2022-11-04T04:30:25.929Z,44.32
2022-11-04T04:31:50.192Z,44.08
2022-11-04T04:34:07.750Z,44.04
2022-11-04T04:35:29.246Z,41.79
2022-11-04T04:36:35.859Z,41.26
2022-11-04T04:37:40.980Z,41.16
2022-11-04T04:39:02.806Z,42.82
2022-11-04T04:40:26.546Z,41.35
2022-11-04T04:41:49.417Z,41.43
2022-11-04T04:43:11.422Z,41.15
2022-11-04T04:44:44.987Z,40.16
2022-11-04T04:45:53.568Z,40.50
2022-11-04T04:46:57.995Z,40.68
2022-11-04T04:48:01.481Z,39.03
2022-11-04T04:49:07.225Z,40.58
2022-11-04T04:50:17.074Z,40.31
2022-11-04T04:51:21.386Z,40.35
2022-11-04T04:52:26.767Z,40.50
2022-11-04T04:53:29.799Z,40.42
2022-11-04T04:54:32.913Z,39.71
2022-11-04T04:55:40.652Z,39.50
2022-11-04T04:56:41.092Z,40.32
2022-11-04T04:57:44.090Z,38.97
2022-11-04T04:58:47.105Z,41.85
2022-11-04T04:59:50.063Z,42.25
2022-11-04T05:00:53.080Z,41.92
2022-11-04T05:01:56.436Z,42.00
2022-11-04T05:02:59.449Z,40.72
2022-11-04T05:04:02.492Z,41.92
2022-11-04T05:05:06.257Z,41.31
2022-11-04T05:06:10.716Z,39.80
2022-11-04T05:07:13.952Z,41.03
2022-11-04T05:08:17.116Z,39.91
2022-11-04T05:09:21.008Z,40.22
2022-11-04T05:10:24.195Z,40.34
2022-11-04T05:11:27.522Z,38.59
2022-11-04T05:12:32.493Z,37.46
2022-11-04T05:13:35.602Z,39.92
2022-11-04T05:14:38.751Z,37.26
2022-11-04T05:15:41.884Z,37.51
2022-11-04T05:16:45.386Z,37.49
2022-11-04T05:17:50.221Z,39.03
2022-11-04T05:18:53.323Z,36.42
2022-11-04T05:19:56.388Z,37.14
2022-11-04T05:21:01.521Z,34.61
2022-11-04T05:22:04.627Z,35.07
2022-11-04T05:23:09.752Z,35.49
2022-11-04T05:24:12.898Z,35.30
2022-11-04T05:25:16.011Z,34.44
2022-11-04T05:26:19.557Z,33.89
2022-11-04T05:27:23.690Z,33.22
2022-11-04T05:28:26.602Z,35.15
2022-11-04T05:29:29.882Z,34.87
2022-11-04T05:30:33.454Z,34.75
2022-11-04T05:31:36.434Z,34.00
2022-11-04T05:32:39.453Z,35.91
2022-11-04T05:33:42.630Z,34.01
2022-11-04T05:34:47.005Z,33.83
2022-11-04T05:35:49.975Z,33.87
2022-11-04T05:36:53.388Z,33.88
2022-11-04T05:37:56.645Z,35.68
2022-11-04T05:38:59.560Z,34.14
2022-11-04T05:40:02.454Z,34.73
2022-11-04T05:41:07.399Z,33.04
2022-11-04T05:42:10.668Z,33.12
2022-11-04T05:43:13.767Z,29.02
2022-11-04T05:44:16.970Z,31.24
2022-11-04T05:45:20.559Z,29.89
2022-11-04T05:46:24.000Z,30.22
2022-11-04T05:47:27.080Z,30.42
2022-11-04T05:48:30.180Z,29.41
2022-11-04T05:49:33.166Z,30.36
2022-11-04T05:50:36.436Z,28.28
2022-11-04T05:51:39.399Z,26.90
2022-11-04T05:52:43.180Z,26.77
2022-11-04T05:53:47.045Z,24.49
2022-11-04T05:54:50.053Z,22.84
2022-11-04T05:55:53.094Z,21.85
2022-11-04T05:56:56.093Z,19.36
2022-11-04T05:57:59.161Z,17.12
2022-11-04T05:59:02.161Z,16.43
2022-11-04T06:00:06.459Z,14.44
2022-11-04T06:01:16.428Z,14.32
2022-11-04T06:02:19.658Z,14.26
2022-11-04T06:03:23.514Z,15.06
2022-11-04T06:04:26.740Z,14.15
2022-11-04T06:05:30.171Z,14.31
2022-11-04T06:06:35.706Z,14.71
2022-11-04T06:07:38.832Z,14.41
2022-11-04T06:08:45.132Z,14.37
2022-11-04T06:09:46.931Z,15.99
2022-11-04T06:10:50.172Z,15.37
2022-11-04T06:11:53.239Z,14.76
2022-11-04T06:12:57.247Z,13.79
2022-11-04T06:14:00.365Z,14.03
2022-11-04T06:15:04.381Z,14.40
2022-11-04T06:16:07.984Z,13.63
2022-11-04T06:17:18.685Z,14.85
2022-11-04T06:18:21.885Z,13.94
2022-11-04T06:19:24.994Z,13.51
2022-11-04T06:20:28.007Z,13.68
2022-11-04T06:21:32.849Z,14.71
2022-11-04T06:22:35.981Z,14.14
2022-11-04T06:23:39.568Z,14.29
2022-11-04T06:24:43.353Z,14.82
2022-11-04T06:25:46.399Z,14.78
2022-11-04T06:26:49.489Z,14.30
2022-11-04T06:27:52.438Z,14.80
2022-11-04T06:28:56.630Z,13.72
2022-11-04T06:29:59.715Z,13.49
2022-11-04T06:31:04.403Z,14.82
2022-11-04T06:32:13.048Z,14.97
2022-11-04T06:33:16.142Z,15.21
2022-11-04T06:34:19.192Z,15.83
2022-11-04T06:35:22.385Z,14.89
2022-11-04T06:36:25.418Z,14.98
2022-11-04T06:37:28.564Z,14.34
2022-11-04T06:38:32.892Z,15.21
2022-11-04T06:39:36.340Z,14.08
2022-11-04T06:40:39.533Z,13.71
2022-11-04T06:41:43.109Z,15.63
2022-11-04T06:42:46.556Z,13.96
2022-11-04T06:43:49.534Z,15.21
2022-11-04T06:44:52.766Z,15.13
2022-11-04T06:45:56.968Z,15.71
2022-11-04T06:47:00.240Z,15.72
2022-11-04T06:48:03.349Z,15.56
2022-11-04T06:49:09.313Z,16.56
2022-11-04T06:50:12.922Z,15.67
2022-11-04T06:51:16.249Z,15.69
2022-11-04T06:52:19.830Z,16.14
2022-11-04T06:53:22.789Z,15.60
2022-11-04T06:54:25.677Z,17.51
2022-11-04T06:55:28.817Z,15.71
2022-11-04T06:56:31.771Z,14.67
2022-11-04T06:57:34.804Z,15.69
2022-11-04T06:58:37.864Z,15.47
2022-11-04T06:59:40.840Z,20.41
2022-11-04T07:00:45.158Z,16.01
2022-11-04T07:01:51.533Z,16.37
2022-11-04T07:02:55.895Z,15.49
2022-11-04T07:04:00.220Z,15.33
2022-11-04T07:05:04.387Z,15.34
2022-11-04T07:06:09.057Z,15.90
2022-11-04T07:07:12.248Z,15.05
2022-11-04T07:08:15.745Z,16.08
2022-11-04T07:09:19.142Z,15.96
2022-11-04T07:10:22.141Z,15.92
2022-11-04T07:11:26.110Z,19.23
2022-11-04T07:12:29.466Z,23.46
2022-11-04T07:13:32.508Z,24.69
2022-11-04T07:14:35.485Z,24.34
2022-11-04T07:15:39.661Z,25.90
2022-11-04T07:16:42.790Z,27.11
2022-11-04T07:17:46.423Z,23.86
2022-11-04T07:18:51.314Z,24.35
2022-11-04T07:19:54.502Z,24.88
2022-11-04T07:20:58.436Z,25.15
2022-11-04T07:22:01.528Z,23.59
2022-11-04T07:23:05.028Z,23.65
2022-11-04T07:24:07.957Z,23.64
2022-11-04T07:25:11.029Z,23.98
2022-11-04T07:26:14.319Z,22.34
2022-11-04T07:27:17.217Z,22.46
2022-11-04T07:28:20.894Z,23.18
2022-11-04T07:29:25.142Z,22.26
2022-11-04T07:30:28.139Z,21.71
2022-11-04T07:31:31.131Z,22.34
2022-11-04T07:32:34.339Z,21.37
2022-11-04T07:33:37.218Z,22.07
2022-11-04T07:34:41.294Z,21.53
2022-11-04T07:35:45.184Z,22.86
2022-11-04T07:36:48.317Z,23.19
2022-11-04T07:37:51.499Z,23.37
2022-11-04T07:38:54.665Z,24.05
2022-11-04T07:39:57.698Z,24.19
2022-11-04T07:41:02.019Z,24.92
2022-11-04T07:42:07.968Z,24.47
2022-11-04T07:43:11.213Z,25.87
2022-11-04T07:44:14.482Z,26.01
2022-11-04T07:45:17.510Z,26.66
2022-11-04T07:46:21.498Z,24.99
2022-11-04T07:47:24.668Z,26.69
2022-11-04T07:48:27.649Z,25.37
2022-11-04T07:49:30.911Z,25.15
2022-11-04T07:50:34.404Z,25.41
2022-11-04T07:51:37.416Z,24.64
2022-11-04T07:52:40.557Z,25.66
2022-11-04T07:53:43.862Z,23.96
2022-11-04T07:54:46.885Z,25.69
2022-11-04T07:55:50.592Z,23.86
2022-11-04T07:56:53.605Z,23.76
2022-11-04T07:57:56.750Z,24.19
2022-11-04T07:58:59.776Z,25.02
2022-11-04T08:00:06.123Z,22.77
2022-11-04T08:01:16.891Z,24.26
2022-11-04T08:02:25.801Z,23.86
2022-11-04T08:03:25.013Z,23.93
2022-11-04T08:04:28.294Z,22.55
2022-11-04T08:05:31.359Z,22.19
2022-11-04T08:06:34.513Z,22.99
2022-11-04T08:07:37.594Z,21.31
2022-11-04T08:08:42.653Z,21.16
2022-11-04T08:09:45.744Z,20.85
2022-11-04T08:10:53.652Z,18.36
2022-11-04T08:11:56.693Z,18.64
2022-11-04T08:12:59.760Z,18.91
2022-11-04T08:14:04.066Z,17.55
2022-11-04T08:15:07.639Z,19.36
2022-11-04T08:16:14.233Z,18.15
2022-11-04T08:17:17.540Z,16.83
2022-11-04T08:18:20.684Z,17.55
2022-11-04T08:19:23.743Z,16.96
2022-11-04T08:20:27.248Z,16.05
2022-11-04T08:21:32.078Z,16.93
2022-11-04T08:22:35.233Z,16.36
2022-11-04T08:23:38.439Z,16.48
2022-11-04T08:24:41.528Z,16.23
2022-11-04T08:25:45.857Z,17.69
2022-11-04T08:26:49.074Z,18.10
2022-11-04T08:27:54.534Z,16.57
2022-11-04T08:28:57.029Z,17.67
2022-11-04T08:30:00.149Z,15.82
2022-11-04T08:31:06.736Z,15.88
2022-11-04T08:32:09.766Z,16.76
2022-11-04T08:33:12.986Z,16.97
2022-11-04T08:34:17.853Z,16.61
2022-11-04T08:35:20.856Z,17.85
2022-11-04T08:36:27.417Z,18.17
2022-11-04T08:37:30.457Z,17.71
2022-11-04T08:38:34.129Z,18.51
2022-11-04T08:39:37.116Z,17.23
2022-11-04T08:40:40.149Z,16.84
2022-11-04T08:41:44.919Z,15.43
2022-11-04T08:42:47.781Z,15.15
2022-11-04T08:43:50.937Z,15.62
2022-11-04T08:44:54.039Z,15.65
2022-11-04T08:45:57.235Z,15.45
2022-11-04T08:47:00.852Z,16.04
2022-11-04T08:48:05.670Z,16.70
2022-11-04T08:49:11.274Z,16.94
2022-11-04T08:50:13.892Z,16.17
2022-11-04T08:51:20.001Z,16.52
2022-11-04T08:52:24.238Z,15.91
2022-11-04T08:53:27.412Z,16.31
2022-11-04T08:54:30.378Z,16.41
2022-11-04T08:55:34.044Z,15.56
2022-11-04T08:56:39.141Z,14.21
2022-11-04T08:57:42.183Z,15.01
2022-11-04T08:58:45.474Z,14.74
2022-11-04T08:59:48.575Z,14.04
2022-11-04T09:00:51.987Z,13.83
2022-11-04T09:01:55.218Z,13.68
2022-11-04T09:02:58.387Z,12.92
2022-11-04T09:04:01.212Z,13.48
2022-11-04T09:05:04.900Z,13.06
2022-11-04T09:06:11.062Z,13.21
2022-11-04T09:07:14.194Z,13.12
2022-11-04T09:08:17.699Z,12.49
2022-11-04T09:09:21.655Z,12.40
2022-11-04T09:10:24.699Z,12.77
2022-11-04T09:11:27.751Z,13.46
2022-11-04T09:12:30.715Z,12.72
2022-11-04T09:13:39.263Z,12.82
2022-11-04T09:14:38.877Z,11.78
2022-11-04T09:15:42.743Z,12.06
2022-11-04T09:16:45.658Z,11.58
2022-11-04T09:17:48.601Z,12.35
2022-11-04T09:18:51.765Z,12.15
2022-11-04T09:19:55.055Z,13.22
2022-11-04T09:21:02.695Z,12.07
2022-11-04T09:22:05.693Z,12.42
2022-11-04T09:23:09.867Z,11.66
2022-11-04T09:24:13.473Z,11.56
2022-11-04T09:25:16.467Z,12.19
2022-11-04T09:26:21.089Z,11.96
2022-11-04T09:27:23.949Z,11.58
2022-11-04T09:28:26.959Z,12.25
2022-11-04T09:29:32.000Z,11.75
2022-11-04T09:30:36.011Z,12.82
2022-11-04T09:31:39.270Z,13.56
2022-11-04T09:32:42.226Z,13.29
2022-11-04T09:33:45.686Z,13.67
2022-11-04T09:34:48.627Z,12.41
2022-11-04T09:35:57.996Z,13.72
2022-11-04T09:37:01.273Z,12.30
2022-11-04T09:38:04.219Z,12.78
2022-11-04T09:39:07.190Z,12.46
2022-11-04T09:40:22.848Z,12.75
2022-11-04T09:41:52.465Z,12.49
2022-11-04T09:43:08.132Z,12.89
2022-11-04T09:44:24.225Z,12.38
2022-11-04T09:45:29.339Z,12.63
2022-11-04T09:46:34.639Z,12.09
2022-11-04T09:47:40.076Z,11.96
2022-11-04T09:48:49.256Z,12.28
2022-11-04T09:49:57.023Z,12.07
2022-11-04T09:51:03.644Z,12.99
2022-11-04T09:52:10.088Z,12.17
2022-11-04T09:53:19.451Z,12.12
2022-11-04T09:54:28.961Z,12.67
2022-11-04T09:55:41.639Z,11.63
2022-11-04T09:56:48.447Z,12.66
2022-11-04T09:57:55.114Z,12.62
2022-11-04T09:58:58.167Z,12.95
2022-11-04T10:00:01.359Z,11.56
2022-11-04T10:01:35.267Z,11.37
2022-11-04T10:02:53.641Z,12.26
2022-11-04T10:04:14.972Z,11.98
2022-11-04T10:05:39.399Z,12.03
2022-11-04T10:06:51.479Z,12.31
2022-11-04T10:08:26.558Z,13.49
2022-11-04T10:09:36.151Z,12.79
2022-11-04T10:10:48.843Z,12.97
2022-11-04T10:13:40.596Z,14.14
2022-11-04T10:15:07.944Z,13.50
2022-11-04T13:32:39.556Z,9.94
2022-11-04T13:34:07.208Z,9.57
2022-11-04T13:35:30.616Z,10.44
2022-11-04T13:36:43.064Z,9.67
2022-11-04T13:38:09.613Z,10.02
2022-11-04T13:40:48.694Z,10.46
2022-11-04T13:42:17.721Z,10.70
2022-11-04T13:43:39.293Z,12.61
2022-11-04T13:44:50.881Z,12.74
2022-11-04T13:45:56.264Z,11.03
2022-11-04T13:47:03.035Z,10.85
2022-11-04T13:48:09.928Z,11.86
2022-11-04T13:49:16.620Z,12.16
2022-11-04T13:50:38.211Z,13.33
2022-11-04T13:51:49.615Z,14.52
2022-11-04T13:52:53.118Z,12.98
2022-11-04T13:53:57.884Z,13.32
2022-11-04T13:55:08.090Z,12.31
2022-11-04T13:56:34.949Z,12.40
2022-11-04T13:57:35.005Z,16.38
2022-11-04T13:58:41.843Z,20.64
2022-11-04T14:00:04.079Z,16.92
2022-11-04T14:01:25.847Z,16.43
2022-11-04T14:02:38.861Z,13.22
2022-11-04T14:03:53.981Z,13.88
2022-11-04T14:04:57.343Z,13.64
2022-11-04T14:06:03.908Z,14.62
2022-11-04T14:07:10.085Z,13.66
2022-11-04T14:08:15.498Z,13.43
2022-11-04T14:09:30.911Z,13.17
2022-11-04T14:10:46.481Z,14.79
2022-11-04T14:12:19.050Z,14.51
2022-11-04T14:13:36.096Z,15.23
2022-11-04T14:14:44.517Z,14.54
2022-11-04T14:15:59.953Z,14.97
2022-11-04T14:17:04.873Z,14.83
2022-11-04T14:18:13.102Z,15.54
2022-11-04T14:19:38.194Z,16.02
2022-11-04T14:20:46.380Z,15.17
2022-11-04T14:22:09.534Z,15.93
2022-11-04T14:23:16.192Z,14.62
2022-11-04T14:24:19.476Z,15.49
2022-11-04T14:25:28.815Z,15.94
2022-11-04T14:26:43.901Z,15.03
2022-11-04T14:27:49.329Z,14.80
2022-11-04T14:29:01.791Z,15.93
2022-11-04T14:30:07.008Z,16.13
2022-11-04T14:31:17.437Z,16.41
2022-11-04T14:32:24.519Z,15.84
2022-11-04T14:33:54.622Z,15.05
2022-11-04T14:35:01.130Z,18.21
2022-11-04T14:36:22.683Z,17.89
2022-11-04T14:38:43.253Z,17.48
2022-11-04T14:39:49.673Z,15.45
2022-11-04T14:41:14.700Z,15.33
2022-11-04T14:42:21.108Z,16.00
2022-11-04T14:43:30.873Z,16.17
2022-11-04T14:44:45.639Z,16.34
2022-11-04T14:45:47.977Z,16.33
2022-11-04T14:46:54.104Z,17.71
2022-11-04T14:48:15.778Z,16.27
2022-11-04T14:50:31.453Z,16.06
2022-11-04T14:51:40.442Z,16.25
2022-11-04T14:52:49.859Z,17.53
2022-11-04T14:53:56.563Z,16.37
2022-11-04T14:55:11.985Z,17.58
2022-11-04T14:56:23.518Z,16.33
2022-11-04T14:57:24.338Z,16.99
2022-11-04T14:58:30.123Z,16.91
2022-11-04T14:59:33.087Z,16.29
2022-11-04T15:00:51.002Z,17.16
2022-11-04T15:01:55.545Z,16.88
2022-11-04T15:03:02.181Z,16.68
2022-11-04T15:04:17.844Z,16.19
2022-11-04T15:05:24.304Z,16.28
2022-11-04T15:06:40.673Z,16.80
2022-11-04T15:07:37.439Z,16.99
2022-11-04T15:08:46.383Z,18.76
2022-11-04T15:09:50.078Z,18.85
2022-11-04T15:11:00.130Z,22.51
2022-11-04T15:12:33.628Z,24.84
2022-11-04T15:13:46.007Z,24.88
2022-11-04T15:14:49.010Z,29.96
2022-11-04T15:15:55.315Z,30.96
2022-11-04T15:16:59.575Z,33.47
2022-11-04T15:18:11.561Z,32.58
2022-11-04T15:19:26.909Z,35.19
2022-11-04T15:20:31.048Z,34.33
2022-11-04T15:21:40.203Z,32.96
2022-11-04T15:22:43.710Z,30.73
2022-11-04T15:23:49.717Z,28.59
2022-11-04T15:24:52.976Z,27.85
2022-11-04T15:25:56.867Z,26.91
2022-11-04T15:27:03.202Z,26.02
2022-11-04T15:28:09.745Z,25.57
2022-11-04T15:29:14.435Z,24.21
2022-11-04T15:30:30.390Z,24.92
2022-11-04T15:31:34.954Z,24.69
2022-11-04T15:32:37.961Z,22.57
2022-11-04T15:33:44.193Z,19.89
2022-11-04T15:34:47.723Z,20.15
2022-11-04T15:35:51.738Z,18.93
2022-11-04T15:36:58.047Z,20.35
2022-11-04T15:38:03.345Z,19.76
2022-11-04T15:39:30.866Z,18.88
2022-11-04T15:40:34.746Z,19.29
2022-11-04T15:41:57.995Z,18.30
2022-11-04T15:43:03.484Z,16.83
2022-11-04T15:44:21.690Z,16.68
2022-11-04T15:45:51.367Z,17.37
2022-11-04T15:47:00.468Z,15.37
2022-11-04T15:48:23.295Z,14.81
2022-11-04T15:49:29.086Z,14.60
2022-11-04T15:50:32.183Z,14.22
2022-11-04T15:51:38.790Z,15.49
2022-11-04T15:52:50.928Z,14.99
2022-11-04T15:53:59.984Z,15.09
2022-11-04T15:55:04.843Z,15.46
2022-11-04T15:56:08.539Z,15.15
2022-11-04T15:57:20.684Z,14.18
2022-11-04T15:58:25.315Z,14.61
2022-11-04T15:59:34.577Z,13.85
2022-11-04T16:00:37.534Z,13.66
2022-11-04T16:01:48.848Z,14.06
2022-11-04T16:03:00.681Z,13.44
2022-11-04T16:04:05.833Z,14.22
2022-11-04T16:05:18.079Z,13.91
2022-11-04T16:07:46.931Z,14.06
2022-11-04T16:09:04.877Z,14.73
2022-11-04T16:10:24.359Z,13.87
2022-11-04T16:11:27.398Z,14.88
2022-11-04T16:12:35.922Z,15.16
2022-11-04T16:13:39.605Z,14.67
2022-11-04T16:14:50.546Z,14.37
2022-11-04T16:16:05.033Z,15.60
2022-11-04T16:17:10.594Z,15.31
2022-11-04T16:18:39.587Z,14.83
2022-11-04T16:19:45.525Z,16.04
2022-11-04T16:20:52.421Z,14.68
2022-11-04T16:22:04.576Z,14.36
2022-11-04T16:23:11.290Z,14.47
2022-11-04T16:24:18.004Z,16.59
2022-11-04T16:25:23.336Z,16.13
2022-11-04T16:26:34.399Z,15.14
2022-11-04T16:27:37.764Z,16.29
2022-11-04T16:28:41.794Z,15.47
2022-11-04T16:29:54.351Z,15.81
2022-11-04T16:31:09.951Z,15.54
2022-11-04T16:33:38.655Z,15.59
2022-11-04T16:34:42.271Z,15.26
2022-11-04T16:35:45.118Z,14.91
2022-11-04T16:36:48.008Z,14.80
2022-11-04T16:37:51.977Z,15.82
2022-11-04T16:38:56.820Z,16.29
2022-11-04T16:39:59.837Z,17.06
2022-11-04T16:41:02.719Z,16.19
2022-11-04T16:42:06.470Z,17.02
2022-11-04T16:43:10.263Z,17.35
2022-11-04T16:44:20.124Z,18.75
2022-11-04T16:45:34.671Z,18.63
2022-11-04T16:46:40.195Z,16.91
2022-11-04T16:47:43.173Z,19.01
2022-11-04T16:48:46.009Z,19.51
2022-11-04T16:49:48.861Z,18.27
2022-11-04T16:50:51.715Z,18.87
2022-11-04T16:51:57.872Z,19.26
2022-11-04T16:53:03.152Z,18.76
2022-11-04T16:54:06.013Z,18.83
2022-11-04T16:55:09.609Z,18.95
2022-11-04T16:56:12.789Z,19.66
2022-11-04T16:57:15.979Z,18.69
2022-11-04T16:58:18.994Z,18.89
2022-11-04T16:59:23.045Z,18.21
2022-11-04T17:00:26.882Z,18.26
2022-11-04T17:01:30.003Z,17.64
2022-11-04T17:02:40.348Z,17.77
2022-11-04T17:03:43.444Z,17.81
2022-11-04T17:04:46.367Z,18.49
2022-11-04T17:05:51.217Z,18.89
2022-11-04T17:06:54.505Z,19.32
2022-11-04T17:08:04.160Z,19.31
2022-11-04T17:09:02.713Z,18.22
2022-11-04T17:10:09.487Z,18.12
2022-11-04T17:11:12.539Z,17.26
2022-11-04T17:12:15.416Z,17.22
2022-11-04T17:13:18.246Z,18.39
2022-11-04T17:14:21.563Z,17.96
2022-11-04T17:15:25.385Z,17.92
2022-11-04T17:16:29.635Z,17.74
2022-11-04T17:17:32.507Z,16.68
2022-11-04T17:18:35.437Z,17.24
2022-11-04T17:19:39.221Z,17.52
2022-11-04T17:20:50.965Z,18.56
2022-11-04T17:21:56.189Z,18.44
2022-11-04T17:22:59.873Z,19.78
2022-11-04T17:24:04.178Z,19.72
2022-11-04T17:25:16.590Z,19.62
2022-11-04T17:26:19.934Z,19.41
2022-11-04T17:27:22.791Z,20.75
2022-11-04T17:28:27.378Z,20.43
2022-11-04T17:29:31.430Z,19.86
2022-11-04T17:30:34.770Z,19.05
2022-11-04T17:31:37.830Z,20.04
2022-11-04T17:32:41.993Z,19.09
2022-11-04T17:33:45.015Z,21.16
2022-11-04T17:34:47.982Z,19.74
2022-11-04T17:35:51.304Z,20.65
2022-11-04T17:36:54.782Z,19.34
2022-11-04T17:37:58.720Z,19.64
2022-11-04T17:39:01.734Z,19.85
2022-11-04T17:40:06.985Z,19.23
2022-11-04T17:41:28.179Z,19.56
2022-11-04T17:42:49.499Z,20.16
2022-11-04T17:44:01.643Z,18.11
2022-11-04T17:45:05.190Z,17.67
2022-11-04T17:46:27.829Z,17.61
2022-11-04T17:47:35.942Z,16.37
2022-11-04T17:48:38.822Z,18.59
2022-11-04T17:49:41.682Z,18.23
2022-11-04T17:50:45.940Z,18.94
2022-11-04T17:51:53.079Z,18.38
2022-11-04T17:52:56.154Z,18.13
2022-11-04T17:53:59.193Z,17.26
2022-11-04T17:55:02.634Z,16.52
2022-11-04T17:56:17.739Z,16.46
2022-11-04T17:57:20.665Z,15.95
2022-11-04T17:58:23.632Z,16.56
2022-11-04T17:59:31.225Z,16.14